Saturday, December 15, 2018, 9:47 AM EST
Back to Local

KGSB, Seymour-johnson Air Force Base

Location: Goldsboro, NC, United States Lat: 35.333
Local Time: 9:47 AM EST (14:47 GMT) Lon: -77.967
Time Zone: US/Eastern Elev: 108 ft

Show me the last for .
Show Decoded

2018-12-15 09:14 METAR KGSB 151414Z AUTO 20003KT 5SM BR OVC013 18/18 A2996 RMK AO2 RAB04E14 CIG
                 004 RWY26 SLP148 $ =
2018-12-15 09:04 METAR KGSB 151404Z AUTO 18004KT 4SM -RA BR OVC013 18/18 A2996 RMK AO2 RAB04 CIG
                 005 RWY26 SLP148 $ =
2018-12-15 08:56 METAR KGSB 151356Z AUTO 20003KT 4SM BR OVC015 18/18 A2995 RMK AO2 RAE29 CIG 005
                 RWY26 SLP145 P0003 T01760176 $ =
2018-12-15 08:48 METAR KGSB 151348Z AUTO 19003KT 5SM BR OVC017 18/18 A2996 RMK AO2 RAE29 CIG
                 005V017 CIG 005 RWY26 SLP148 $ =
2018-12-15 08:38 METAR KGSB 151338Z AUTO 20004KT 6SM BR BKN005 18/18 A2995 RMK AO2 RAE29 SLP145 $
                 =
2018-12-15 08:29 METAR KGSB 151329Z AUTO 22003KT 6SM BR BKN006 18/18 A2995 RMK AO2 RAE29 CIG
                 005V009 SLP145 $ =
2018-12-15 08:26 METAR KGSB 151326Z AUTO 21004KT 6SM -RA BR BKN006 18/18 A2995 RMK AO2 CIG
                 005V009 SLP145 $ =
2018-12-15 08:23 METAR KGSB 151323Z AUTO 21004KT 5SM -RA BR SCT005 18/18 A2995 RMK AO2 SLP145 $ =
2018-12-15 08:08 METAR KGSB 151308Z AUTO 00000KT 4SM -RA BR BKN005 18/18 A2995 RMK AO2 BKN V SCT
                 SLP145 $ =
2018-12-15 08:05 METAR KGSB 151305Z AUTO 00000KT 4SM -RA BR SCT005 18/18 A2995 RMK AO2 SLP145 $ =
2018-12-15 07:56 METAR KGSB 151256Z AUTO 20003KT 4SM -RA BR BKN005 OVC014 18/18 A2995 RMK AO2
                 SLP145 P0006 T01760176 $ =
2018-12-15 07:26 METAR KGSB 151226Z AUTO 21005KT 6SM -RA BR BKN005 18/18 A2995 RMK AO2 SLP145 $ =
2018-12-15 07:11 METAR KGSB 151211Z AUTO 22008KT 8SM -RA BKN006 OVC018 18/18 A2995 RMK AO2 CIG
                 006V009 SLP145 $ =
2018-12-15 07:05 METAR KGSB 151205Z 22007KT 6SM -RA BR SCT005 BKN009 OVC018 18/18 A2994 RMK AO2A
                 CIG 006V009 SLP141 $ =
2018-12-15 06:59 METAR KGSB 151159Z 21007KT 5SM -RA BR BKN006 OVC016 18/18 A2994 RMK AO2A CIG
                 006V016 SLP141 $ =
2018-12-15 06:56 METAR KGSB 151156Z 22006KT 5SM -RA BR BKN008 BKN016 OVC034 18/18 A2994 RMK AO2A
                 RAE00RAB34 CIG 008V016 SLP141 P0003 60008 70106 T01780178 10180 20167 53007 $ =
2018-12-15 06:54 METAR KGSB 151154Z 22006KT 5SM -RA BR FEW004 BKN008 BKN016 OVC034 18/18 A2994
                 RMK AO2A RAE00RAB34 CIG 008V016 SLP141 $ =
2018-12-15 06:48 METAR KGSB 151148Z 22007KT 4SM -RA BR SCT005 BKN016 OVC033 18/18 A2994 RMK AO2A
                 RAE00RAB34 SLP141 $ =
2018-12-15 06:45 METAR KGSB 151145Z 22007KT 4SM -RA BR SCT007 BKN014 OVC033 18/18 A2994 RMK AO2A
                 RAE00RAB34 PRESRR SLP141 $ =
2018-12-15 06:35 METAR KGSB 151135Z 20004KT 2SM -RA BR SCT005 BKN012 BKN035 OVC044 18/18 A2992
                 RMK AO2A RAE00RAB34 CIG 004V038 SLP135 $ =
2018-12-15 06:21 METAR KGSB 151121Z 17003KT 1/4SM BKN004 BKN047 BKN060 18/18 A2991 RMK AO2A RAE00
                 CIG 004V049 BKN004 V SCT SLP131 $ =
2018-12-15 06:09 METAR KGSB 151109Z AUTO 17003KT 10SM SCT004 BKN049 BKN060 18/18 A2991 RMK AO2
                 RAE00 SLP131 $ =
2018-12-15 06:03 METAR KGSB 151103Z AUTO 15004KT 10SM BKN004 BKN055 18/18 A2990 RMK AO2 VIS 2
                 RWY08 RAE00 SLP128 $ =
2018-12-15 06:00 METAR KGSB 151100Z AUTO 14004KT 10SM BKN005 BKN050 OVC060 18/18 A2990 RMK AO2
                 VIS 1 3/4 RWY08 RAE00 SLP128 $ =
2018-12-15 05:56 METAR KGSB 151056Z AUTO 13004KT 10SM -RA BKN005 OVC050 18/18 A2990 RMK AO2 VIS 1
                 3/4 RWY08 RAB0959E18RAB31 BKN V OVC SLP128 P0001 T01790179 $ =
2018-12-15 05:46 METAR KGSB 151046Z AUTO 00000KT 5SM -RA BR OVC005 17/17 A2991 RMK AO2 VIS 1
                 RWY08 RAB0959E18RAB31 SLP131 $ =
2018-12-15 05:43 METAR KGSB 151043Z AUTO 15003KT 2 3/4SM -RA BR OVC005 17/17 A2991 RMK AO2 VIS
                 5/8V2 3/4 VIS 1 1/8 RWY08 RAB0959E18RAB31 SLP131 $ =
2018-12-15 05:40 METAR KGSB 151040Z AUTO 00000KT 1 1/4SM -RA BR OVC005 17/17 A2991 RMK AO2 VIS
                 5/8V1 1/4 RAB0959E18RAB31 SLP131 $ =
2018-12-15 05:31 METAR KGSB 151031Z AUTO 00000KT 3/4SM R26/3500V5500FT -RA BR OVC005 17/17 A2990
                 RMK AO2 RAB0959E18RAB31 OVC V BKN CIG 004 RWY08 SLP128 $ =
2018-12-15 05:30 METAR KGSB 151030Z AUTO 00000KT 3/4SM R26/4000V5500FT BR OVC005 17/17 A2990 RMK
                 AO2 RAB0959E18 OVC V BKN CIG 004 RWY08 SLP128 $ =
2018-12-15 05:27 METAR KGSB 151027Z AUTO 00000KT 7/8SM R26/4500V5500FT BR BKN005 17/17 A2990 RMK
                 AO2 VIS 3/8 RWY08 RAB0959E18 CIG 004 RWY08 SLP128 $ =
2018-12-15 05:18 METAR KGSB 151018Z AUTO 10003KT 3/4SM R26/3500V5000FT BR BKN005 BKN075 17/17
                 A2990 RMK AO2 RAB0959E18 CIG 005V075 BKN005 V SCT CIG 004 RWY08 SLP128 $ =
2018-12-15 05:17 METAR KGSB 151017Z AUTO 10003KT 3/4SM R26/3500V5000FT -RA BR BKN005 BKN075 17/17
                 A2990 RMK AO2 RAB0959 CIG 005V075 BKN005 V SCT CIG 004 RWY08 SLP128 $ =
2018-12-15 05:14 METAR KGSB 151014Z AUTO 09003KT 3/4SM R26/4000V5000FT -RA BR SCT005 BKN070 17/17
                 A2990 RMK AO2 RAB0959 SLP128 $ =
2018-12-15 05:11 METAR KGSB 151011Z AUTO 00000KT 7/8SM R26/4000VP6000FT -RA BR SCT005 BKN075
                 17/17 A2990 RMK AO2 VIS 7/8V1 5/8 RAB0959 SLP128 $ =
2018-12-15 05:08 METAR KGSB 151008Z AUTO 00000KT 1SM R26/4000VP6000FT -RA BR SCT005 BKN075 17/17
                 A2990 RMK AO2 VIS 1V2 3/4 VIS 1/2 RWY08 RAB0959 SLP128 $ =
2018-12-15 05:05 METAR KGSB 151005Z AUTO 00000KT 1 1/8SM R26/6000FT -RA BR FEW004 BKN075 17/17
                 A2990 RMK AO2 VIS 1 1/8V4 VIS 1/2 RWY08 RAB0959 SLP128 $ =
2018-12-15 05:02 METAR KGSB 151002Z AUTO 00000KT 1 5/8SM -RA BR FEW004 BKN075 17/17 A2990 RMK AO2
                 VIS 1 5/8V6 VIS 1/2 RWY08 RAB0959 SLP128 $ =
2018-12-15 04:59 METAR KGSB 150959Z AUTO 00000KT 2 3/4SM -RA BR FEW004 BKN075 17/17 A2990 RMK AO2
                 VIS 2 3/4V6 VIS 1/2 RWY08 RAB59 SLP128 $ =
2018-12-15 04:56 METAR KGSB 150956Z AUTO 00000KT 5SM BR FEW004 OVC075 18/18 A2990 RMK AO2 VIS 1/2
                 RWY08 RAE44 SLP128 P0001 T01750175 $ =
2018-12-15 04:45 METAR KGSB 150945Z AUTO 00000KT 6SM BR SCT004 OVC075 18/18 A2990 RMK AO2 VIS 3/4
                 RWY08 RAE44 SLP128 $ =
2018-12-15 04:44 METAR KGSB 150944Z AUTO 00000KT 6SM -RA BR SCT004 OVC075 18/18 A2990 RMK AO2 VIS
                 3/4 RWY08 SLP128 $ =
2018-12-15 04:35 METAR KGSB 150935Z AUTO 00000KT 4SM -RA BR BKN004 OVC080 18/18 A2991 RMK AO2 VIS
                 5/8 RWY08 SLP131 $ =
2018-12-15 04:32 METAR KGSB 150932Z AUTO 00000KT 3SM -RA BR OVC003 17/17 A2991 RMK AO2 VIS 5/8
                 RWY08 SLP131 $ =
2018-12-15 04:29 METAR KGSB 150929Z AUTO 00000KT 1 3/4SM -RA BR OVC003 17/17 A2991 RMK AO2 VIS
                 3/4V2 VIS 5/8 RWY08 SLP131 $ =
2018-12-15 04:26 METAR KGSB 150926Z AUTO 00000KT 1 1/8SM R26/6000FT -RA BR OVC003 17/17 A2991 RMK
                 AO2 VIS 5/8V1 3/8 SLP131 $ =
2018-12-15 04:05 METAR KGSB 150905Z AUTO 00000KT 3/4SM R26/3500V4500FT -RA BR OVC002 17/17 A2992
                 RMK AO2 VIS 3/4V2 3/4 SLP135 $ =
2018-12-15 04:02 METAR KGSB 150902Z AUTO 00000KT 7/8SM R26/3500V6000FT -RA BR OVC002 17/17 A2992
                 RMK AO2 VIS 3/4V4 VIS 3/8 RWY08 SLP135 $ =
2018-12-15 03:59 METAR KGSB 150859Z AUTO 00000KT 1 1/4SM -RA BR OVC002 18/17 A2992 RMK AO2 VIS
                 1V5 VIS 1/2 RWY08 SLP135 $ =
2018-12-15 03:56 METAR KGSB 150856Z AUTO 00000KT 2 3/4SM -RA BR OVC002 18/17 A2992 RMK AO2 VIS 2
                 1/4V5 VIS 5/8 RWY08 RAE14RAB28E46RAB55 SLP135 P0001 60003 T01760174 57013 $ =
2018-12-15 03:55 METAR KGSB 150855Z AUTO 00000KT 2 3/4SM BR OVC002 18/17 A2992 RMK AO2 VIS 2
                 3/4V5 VIS 5/8 RWY08 RAE14RAB28E46RAB55 SLP135 $ =
2018-12-15 03:46 METAR KGSB 150846Z AUTO 00000KT 4SM BR OVC002 18/17 A2992 RMK AO2 VIS 1/2 RWY08
                 RAE14RAB28E46 SLP135 $ =
2018-12-15 03:43 METAR KGSB 150843Z AUTO 00000KT 3SM -RA BR OVC002 17/17 A2992 RMK AO2 VIS 3/8
                 RWY08 RAE14RAB28 SLP135 $ =
2018-12-15 03:40 METAR KGSB 150840Z AUTO 00000KT 1 7/8SM -RA BR OVC002 17/17 A2992 RMK AO2 VIS 1
                 1/2V4 VIS 3/8 RWY08 RAE14RAB28 SLP135 $ =
2018-12-15 03:37 METAR KGSB 150837Z AUTO 00000KT 1 1/2SM -RA BR OVC002 17/17 A2992 RMK AO2 VIS 1
                 1/2V6 VIS 3/8 RWY08 RAE14RAB28 SLP135 $ =
2018-12-15 03:34 METAR KGSB 150834Z AUTO 00000KT 2 1/2SM -RA BR OVC002 17/17 A2992 RMK AO2 VIS 2
                 1/2V7 VIS 1/2 RWY08 RAE14RAB28 SLP135 $ =
2018-12-15 03:28 METAR KGSB 150828Z AUTO 00000KT 6SM -RA BR OVC002 18/17 A2992 RMK AO2 VIS 1/2
                 RWY08 RAE14RAB28 SLP135 $ =
2018-12-15 03:17 METAR KGSB 150817Z AUTO 00000KT 6SM BR OVC002 18/17 A2992 RMK AO2 VIS 1 1/8
                 RWY08 RAE14 SLP135 $ =
2018-12-15 03:14 METAR KGSB 150814Z AUTO 00000KT 7SM OVC003 18/17 A2993 RMK AO2 VIS 1 1/8 RWY08
                 RAE14 SLP138 $ =
2018-12-15 02:56 METAR KGSB 150756Z AUTO 17003KT 7SM -RA OVC003 18/18 A2994 RMK AO2 RAB0656
                 SLP141 P0002 T01770175 $ =
2018-12-15 02:24 METAR KGSB 150724Z AUTO 19003KT 7SM -RA OVC003 18/17 A2995 RMK AO2 RAB0656
                 SLP145 $ =
2018-12-15 01:57 METAR KGSB 150657Z AUTO 20004KT 10SM -RA OVC004 18/18 A2995 RMK AO2 RAB56 SLP145
                 $ =
2018-12-15 01:56 METAR KGSB 150656Z AUTO 20005KT 10SM OVC004 18/18 A2995 RMK AO2 SLP145 T01770175
                 $ =
2018-12-15 01:53 METAR KGSB 150653Z AUTO 20004KT 10SM OVC004 18/18 A2995 RMK AO2 SLP145 $ =
2018-12-15 00:56 METAR KGSB 150556Z AUTO 00000KT 10SM OVC005 17/17 A2996 RMK AO2 SLP148 60044
                 T01680165 10173 20135 56012 $ =
2018-12-14 23:56 METAR KGSB 150456Z AUTO 13003KT 10SM OVC004 17/17 A2996 RMK AO2 RAE04 CIG
                 004V006 SLP148 P0001 T01690166 401730044 $ =
2018-12-14 23:31 METAR KGSB 150431Z AUTO 13005KT 9SM OVC006 16/16 A2997 RMK AO2 RAE04 SLP152 $ =
2018-12-14 23:16 METAR KGSB 150416Z AUTO 07003KT 10SM OVC007 17/17 A2997 RMK AO2 RAE04 SLP152 $ =
2018-12-14 23:07 METAR KGSB 150407Z AUTO 03003KT 5SM BR BKN008 OVC013 17/16 A2997 RMK AO2 RAE04
                 CIG 006V012 SLP152 $ =
2018-12-14 23:04 METAR KGSB 150404Z AUTO 04003KT 5SM BR BKN006 OVC013 17/16 A2997 RMK AO2 RAE04
                 CIG 006V012 BKN V SCT SLP152 $ =
2018-12-14 23:02 METAR KGSB 150402Z AUTO 07004KT 5SM -RA BR FEW005 BKN009 OVC015 17/16 A2998 RMK
                 AO2 CIG 009V011 SLP155 $ =
2018-12-14 22:56 METAR KGSB 150356Z AUTO 09006KT 6SM -RA BR FEW004 BKN011 BKN016 OVC026 17/16
                 A2998 RMK AO2 CIG 011V034 SLP155 P0011 T01690164 $ =
2018-12-14 22:50 METAR KGSB 150350Z AUTO 10007KT 5SM -RA BR FEW004 BKN013 OVC034 17/17 A2998 RMK
                 AO2 CIG 013V034 SLP155 $ =
2018-12-14 22:47 METAR KGSB 150347Z AUTO 10007KT 6SM -RA BR FEW004 SCT012 BKN018 OVC034 17/17
                 A2998 RMK AO2 CIG 018V030 SLP155 $ =
2018-12-14 22:41 METAR KGSB 150341Z AUTO 13005KT 9SM -RA FEW006 SCT014 BKN023 OVC030 17/17 A2999
                 RMK AO2 CIG 023V036 BKN V SCT SLP159 $ =
2018-12-14 22:17 METAR KGSB 150317Z AUTO 09012KT 4SM -RA BR SCT004 16/16 A2998 RMK AO2 SLP155 $ =
2018-12-14 21:59 METAR KGSB 150259Z AUTO 09011KT 6SM -RA BR BKN004 16/16 A2999 RMK AO2 SLP159 $ =
2018-12-14 21:56 METAR KGSB 150256Z AUTO 09009KT 7SM -RA OVC005 16/16 A2999 RMK AO2 SLP159 P0009
                 60032 T01600157 57034 $ =
2018-12-14 21:41 METAR KGSB 150241Z AUTO 09008KT 7SM -RA OVC005 16/15 A3000 RMK AO2 PRESFR SLP162
                 $ =
2018-12-14 21:29 METAR KGSB 150229Z AUTO 09009KT 8SM -RA OVC004 16/15 A3002 RMK AO2 SLP169 $ =
2018-12-14 20:56 METAR KGSB 150156Z AUTO 08010KT 8SM -RA BKN003 OVC018 15/15 A3003 RMK AO2 SLP172
                 P0011 T01530148 $ =
2018-12-14 20:42 METAR KGSB 150142Z AUTO 08011KT 8SM -RA BKN003 BKN030 OVC048 15/15 A3004 RMK AO2
                 CIG 003V055 SLP176 $ =
2018-12-14 20:39 METAR KGSB 150139Z AUTO 08011KT 8SM -RA SCT004 BKN029 OVC050 15/15 A3004 RMK AO2
                 CIG 029V055 BKN V SCT CIG 018 RWY08 SLP176 $ =
2018-12-14 20:12 METAR KGSB 150112Z AUTO 09009KT 6SM -RA BR SCT002 15/14 A3006 RMK AO2 SLP183 $ =
2018-12-14 20:03 METAR KGSB 150103Z AUTO 07008KT 3SM -RA BR BKN002 15/14 A3007 RMK AO2 CIG
                 002V028 SLP186 $ =
2018-12-14 19:56 METAR KGSB 150056Z AUTO 08007KT 3SM -RA BR OVC028 14/14 A3008 RMK AO2 SLP189
                 P0012 T01440139 $ =
2018-12-14 19:53 METAR KGSB 150053Z AUTO 08007KT 3SM -RA BR OVC026 14/14 A3008 RMK AO2 SLP189 $ =
2018-12-14 19:44 METAR KGSB 150044Z AUTO 09006KT 2 3/4SM RA BR OVC028 14/14 A3009 RMK AO2 VIS 2
                 3/4V4 SLP193 $ =
2018-12-14 19:26 METAR KGSB 150026Z AUTO 09005KT 4SM -RA BR OVC024 14/14 A3009 RMK AO2 SLP193 $ =
2018-12-14 19:20 METAR KGSB 150020Z AUTO 09005KT 6SM -RA BR OVC021 14/13 A3009 RMK AO2 CIG
                 021V030 SLP193 $ =
2018-12-14 19:14 METAR KGSB 150014Z AUTO 07006KT 7SM -RA OVC027 14/13 A3009 RMK AO2 CIG 027V033
                 SLP193 $ =
2018-12-14 18:56 METAR KGSB 142356Z AUTO 07004KT 6SM -RA BR OVC032 14/13 A3009 RMK AO2 SLP193
                 P0011 60048 T01350129 10136 20099 57012 $ =
2018-12-14 18:26 METAR KGSB 142326Z AUTO 08004KT 6SM -RA BR SCT017 13/13 A3011 RMK AO2 SLP199 $ =
2018-12-14 17:56 METAR KGSB 142256Z AUTO 00000KT 4SM -RA BR OVC018 13/12 A3011 RMK AO2 CIG
                 018V027 CIG 016 RWY26 SLP199 P0008 T01290123 $ =
2018-12-14 17:50 METAR KGSB 142250Z AUTO 00000KT 4SM -RA BR OVC018 13/12 A3011 RMK AO2 CIG
                 018V027 CIG 017 RWY26 SLP199 $ =
2018-12-14 17:26 METAR KGSB 142226Z AUTO 06006KT 6SM -RA BR FEW006 OVC026 12/12 A3011 RMK AO2 CIG
                 004 RWY26 SLP199 $ =
2018-12-14 17:17 METAR KGSB 142217Z AUTO 06005KT 5SM -RA BR FEW006 SCT011 OVC022 13/12 A3011 RMK
                 AO2 CIG 016V022 CIG 004 RWY26 SLP199 $ =
2018-12-14 17:08 METAR KGSB 142208Z AUTO 07004KT 6SM -RA BR SCT006 SCT011 BKN016 OVC025 13/12
                 A3011 RMK AO2 BKN V OVC CIG 004 RWY26 SLP199 $ =
2018-12-14 17:02 METAR KGSB 142202Z AUTO 06006KT 6SM -RA BR SCT006 OVC014 13/12 A3011 RMK AO2
                 SLP199 $ =
2018-12-14 16:56 METAR KGSB 142156Z AUTO 06005KT 6SM -RA BR SCT010 OVC016 13/12 A3011 RMK AO2 CIG
                 009V016 SLP199 P0011 T01250117 $ =
2018-12-14 16:53 METAR KGSB 142153Z AUTO 07006KT 6SM -RA BR SCT008 OVC016 13/12 A3011 RMK AO2 CIG
                 009V016 SLP199 $ =
2018-12-14 16:47 METAR KGSB 142147Z AUTO 08004KT 6SM -RA BR SCT008 OVC012 12/12 A3011 RMK AO2
                 SLP199 $ =
2018-12-14 16:08 METAR KGSB 142108Z AUTO 04005KT 6SM -RA BR BKN009 BKN016 BKN023 OVC028 12/11
                 A3013 RMK AO2 CIG 009V013 SLP206 $ =
2018-12-14 15:59 METAR KGSB 142059Z AUTO 05006KT 6SM -RA BR BKN013 BKN022 OVC030 12/11 A3013 RMK
                 AO2 CIG 013V022 SLP206 $ =
2018-12-14 15:56 METAR KGSB 142056Z 05006KT 3SM -RA BR SCT012 BKN017 BKN022 OVC030 12/11 A3013
                 RMK AO2A CIG 013V017 SLP206 P0011 60018 T01200111 57018 $ =
2018-12-14 15:35 METAR KGSB 142035Z AUTO 07005KT 7SM -RA BKN012 BKN030 BKN039 12/11 A3014 RMK AO2
                 CIG 012V041 BKN012 V SCT SLP210 $ =
2018-12-14 14:56 METAR KGSB 141956Z 06005KT 10SM -RA BKN038 BKN047 11/10 A3014 RMK AO2A SLP210
                 P0007 T01120101 $ =
2018-12-14 13:56 METAR KGSB 141856Z 05005KT 5SM -RA BKN039 OVC055 11/10 A3017 RMK AO2A RAE08RAB12
                 SLP220 P0001 T01070095 $ =
2018-12-14 13:12 METAR KGSB 141812Z AUTO 06006KT 10SM -RA BKN041 BKN050 10/09 A3018 RMK AO2
                 RAE08RAB12 SLP223 $ =
2018-12-14 13:08 METAR KGSB 141808Z AUTO 07006KT 10SM SCT040 BKN050 10/09 A3018 RMK AO2 RAE08
                 SLP223 $ =
2018-12-14 12:56 METAR KGSB 141756Z 05006KT 5SM -RA BKN040 OVC050 10/08 A3018 RMK AO2A
                 RAE1656RAB1659 SLP223 P0001 60006 T00980082 10098 20074 57040 $ =
2018-12-14 11:59 METAR KGSB 141659Z AUTO 06006KT 10SM -RA SCT046 09/07 A3021 RMK AO2 RAB59 SLP234
                 $ =
2018-12-14 11:56 METAR KGSB 141656Z 06005KT 5SM -RA BKN045 OVC055 09/07 A3022 RMK AO2A
                 RAE06RAB22E47 SLP237 P0001 T00910072 $ =
2018-12-14 11:47 METAR KGSB 141647Z AUTO 05006KT 10SM FEW055 09/07 A3022 RMK AO2 RAE06RAB22E47
                 SLP237 $ =
2018-12-14 11:22 METAR KGSB 141622Z AUTO 06006KT 10SM -RA SCT055 09/07 A3024 RMK AO2 RAE06RAB22
                 SLP244 $ =
2018-12-14 11:06 METAR KGSB 141606Z AUTO 06007KT 10SM FEW060 08/06 A3025 RMK AO2 RAE06 PRESFR
                 SLP247 $ =
2018-12-14 10:56 METAR KGSB 141556Z 07008KT 5SM -RA SCT050 BKN065 OVC090 08/06 A3027 RMK AO2A
                 SLP254 P0001 T00810059 $ =
2018-12-14 09:56 METAR KGSB 141456Z COR AUTO 05006KT 5SM -RA BKN044 OVC055 08/05 A3030 RMK AO2A
                 SLP264 P0002 60003 T00770052 55003 $ COR 1511 =

Support USWX by starting your Amazon purchase here.